createdAt,value
2023-04-18T00:00:52.720Z,22.91
2023-04-18T00:01:52.859Z,22.91
2023-04-18T00:02:52.954Z,22.91
2023-04-18T00:03:53.144Z,22.92
2023-04-18T00:04:52.948Z,22.92
2023-04-18T00:05:52.919Z,22.91
2023-04-18T00:06:52.949Z,22.91
2023-04-18T00:07:53.026Z,22.91
2023-04-18T00:08:53.047Z,22.91
2023-04-18T00:09:53.017Z,22.90
2023-04-18T00:10:53.026Z,22.91
2023-04-18T00:11:53.047Z,22.91
2023-04-18T00:12:53.084Z,22.90
2023-04-18T00:13:53.031Z,22.91
2023-04-18T00:14:53.040Z,22.91
2023-04-18T00:15:53.036Z,22.91
2023-04-18T00:16:53.083Z,22.91
2023-04-18T00:17:53.132Z,22.91
2023-04-18T00:18:53.046Z,22.91
2023-04-18T00:19:53.044Z,22.92
2023-04-18T00:20:53.045Z,22.91
2023-04-18T00:21:53.051Z,22.90
2023-04-18T00:22:53.046Z,22.91
2023-04-18T00:23:53.049Z,22.90
2023-04-18T00:24:53.093Z,22.91
2023-04-18T00:25:53.131Z,22.91
2023-04-18T00:26:53.203Z,22.90
2023-04-18T00:27:53.224Z,22.90
2023-04-18T00:28:53.260Z,22.90
2023-04-18T00:29:53.307Z,22.91
2023-04-18T00:30:53.363Z,22.90
2023-04-18T00:31:53.379Z,22.90
2023-04-18T00:32:53.452Z,22.90
2023-04-18T00:33:53.484Z,22.90
2023-04-18T00:34:53.509Z,22.90
2023-04-18T00:35:53.547Z,22.90
2023-04-18T00:36:53.599Z,22.90
2023-04-18T00:37:53.634Z,22.90
2023-04-18T00:38:53.690Z,22.90
2023-04-18T00:39:53.726Z,22.90
2023-04-18T00:40:53.806Z,22.90
2023-04-18T00:41:53.818Z,22.90
2023-04-18T00:42:53.850Z,22.90
2023-04-18T00:43:54.100Z,22.90
2023-04-18T00:44:53.986Z,22.89
2023-04-18T00:45:54.067Z,22.89
2023-04-18T00:46:54.049Z,22.89
2023-04-18T00:47:54.124Z,22.89
2023-04-18T00:48:54.148Z,22.89
2023-04-18T00:49:54.189Z,22.90
2023-04-18T00:50:54.220Z,22.89
2023-04-18T00:51:54.400Z,22.88
2023-04-18T00:52:54.341Z,22.88
2023-04-18T00:53:54.364Z,22.88
2023-04-18T00:54:54.405Z,22.88
2023-04-18T00:55:54.452Z,22.88
2023-04-18T00:56:54.567Z,22.88
2023-04-18T00:57:54.555Z,22.88
2023-04-18T00:58:54.609Z,22.88
2023-04-18T00:59:54.632Z,22.88
2023-04-18T01:00:54.722Z,22.88
2023-04-18T01:01:54.966Z,22.89
2023-04-18T01:02:54.852Z,22.89
2023-04-18T01:03:55.034Z,22.89
2023-04-18T01:04:54.899Z,22.88
2023-04-18T01:05:54.913Z,22.89
2023-04-18T01:06:54.932Z,22.88
2023-04-18T01:07:54.980Z,22.88
2023-04-18T01:08:55.031Z,22.88
2023-04-18T01:09:55.078Z,22.89
2023-04-18T01:10:55.117Z,22.89
2023-04-18T01:11:55.148Z,22.88
2023-04-18T01:12:55.195Z,22.89
2023-04-18T01:13:55.251Z,22.88
2023-04-18T01:14:55.293Z,22.88
2023-04-18T01:15:55.375Z,22.88
2023-04-18T01:16:55.376Z,22.88
2023-04-18T01:17:55.468Z,22.88
2023-04-18T01:18:55.475Z,22.88
2023-04-18T01:19:55.537Z,22.88
2023-04-18T01:20:55.573Z,22.88
2023-04-18T01:21:55.588Z,22.88
2023-04-18T01:22:55.585Z,22.87
2023-04-18T01:23:55.647Z,22.88
2023-04-18T01:24:55.584Z,22.88
2023-04-18T01:25:55.610Z,22.88
2023-04-18T01:26:55.621Z,22.87
2023-04-18T01:27:55.617Z,22.87
2023-04-18T01:28:55.613Z,22.87
2023-04-18T01:29:55.626Z,22.87
2023-04-18T01:30:55.643Z,22.87
2023-04-18T01:31:55.622Z,22.87
2023-04-18T01:32:55.673Z,22.87
2023-04-18T01:33:55.630Z,22.87
2023-04-18T01:34:55.644Z,22.86
2023-04-18T01:35:55.652Z,22.86
2023-04-18T01:36:55.681Z,22.87
2023-04-18T01:37:55.731Z,22.87
2023-04-18T01:38:55.791Z,22.86
2023-04-18T01:39:55.825Z,22.86
2023-04-18T01:40:55.884Z,22.86
2023-04-18T01:41:55.929Z,22.86
2023-04-18T01:42:55.980Z,22.87
2023-04-18T01:43:56.018Z,22.87
2023-04-18T01:44:56.053Z,22.87
2023-04-18T01:45:56.128Z,22.86
2023-04-18T01:46:56.261Z,22.86
2023-04-18T01:47:56.292Z,22.86
2023-04-18T01:48:56.263Z,22.86
2023-04-18T01:49:56.303Z,22.86
2023-04-18T01:50:56.356Z,22.86
2023-04-18T01:51:56.400Z,22.86
2023-04-18T01:52:56.443Z,22.86
2023-04-18T01:53:56.488Z,22.87
2023-04-18T01:54:56.532Z,22.86
2023-04-18T01:55:56.586Z,22.86
2023-04-18T01:56:56.618Z,22.86
2023-04-18T01:57:56.669Z,22.86
2023-04-18T01:58:56.700Z,22.86
2023-04-18T01:59:56.779Z,22.86
2023-04-18T02:00:56.829Z,22.86
2023-04-18T02:01:56.893Z,22.85
2023-04-18T02:02:56.929Z,22.85
2023-04-18T02:03:56.913Z,22.86
2023-04-18T02:04:56.802Z,22.85
2023-04-18T02:05:56.815Z,22.84
2023-04-18T02:06:56.829Z,22.84
2023-04-18T02:07:56.805Z,22.85
2023-04-18T02:08:56.823Z,22.85
2023-04-18T02:09:56.814Z,22.85
2023-04-18T02:10:56.838Z,22.84
2023-04-18T02:11:56.826Z,22.84
2023-04-18T02:12:56.820Z,22.85
2023-04-18T02:13:56.822Z,22.85
2023-04-18T02:14:56.824Z,22.85
2023-04-18T02:15:56.930Z,22.85
2023-04-18T02:16:56.889Z,22.85
2023-04-18T02:17:56.891Z,22.85
2023-04-18T02:18:56.838Z,22.85
2023-04-18T02:19:56.872Z,22.85
2023-04-18T02:20:56.918Z,22.85
2023-04-18T02:21:56.969Z,22.84
2023-04-18T02:22:57.010Z,22.85
2023-04-18T02:23:57.072Z,22.84
2023-04-18T02:24:57.114Z,22.84
2023-04-18T02:25:57.151Z,22.84
2023-04-18T02:26:57.193Z,22.84
2023-04-18T02:27:57.228Z,22.85
2023-04-18T02:28:57.287Z,22.85
2023-04-18T02:29:57.324Z,22.85
2023-04-18T02:30:57.382Z,22.85
2023-04-18T02:31:57.437Z,22.85
2023-04-18T02:32:57.523Z,22.86
2023-04-18T02:33:57.500Z,22.85
2023-04-18T02:34:57.541Z,22.85
2023-04-18T02:35:57.598Z,22.85
2023-04-18T02:36:57.650Z,22.84
2023-04-18T02:37:57.677Z,22.85
2023-04-18T02:38:57.730Z,22.85
2023-04-18T02:39:57.777Z,22.84
2023-04-18T02:40:57.843Z,22.85
2023-04-18T02:41:57.873Z,22.84
2023-04-18T02:42:57.925Z,22.84
2023-04-18T02:43:57.976Z,22.84
2023-04-18T02:44:58.014Z,22.84
2023-04-18T02:45:58.104Z,22.84
2023-04-18T02:46:58.133Z,22.84
2023-04-18T02:47:58.203Z,22.84
2023-04-18T02:48:58.252Z,22.84
2023-04-18T02:49:58.280Z,22.84
2023-04-18T02:50:58.346Z,22.84
2023-04-18T02:51:58.381Z,22.84
2023-04-18T02:52:58.447Z,22.83
2023-04-18T02:53:58.465Z,22.83
2023-04-18T02:54:58.484Z,22.83
2023-04-18T02:55:58.491Z,22.83
2023-04-18T02:56:58.496Z,22.84
2023-04-18T02:57:58.503Z,22.83
2023-04-18T02:58:58.507Z,22.83
2023-04-18T02:59:58.518Z,22.83
2023-04-18T03:00:58.572Z,22.82
2023-04-18T03:01:58.568Z,22.79
2023-04-18T03:02:58.589Z,22.76
2023-04-18T03:03:58.569Z,22.73
2023-04-18T03:04:58.625Z,22.69
2023-04-18T03:05:58.577Z,22.66
2023-04-18T03:06:58.580Z,22.62
2023-04-18T03:07:58.606Z,22.57
2023-04-18T03:08:58.611Z,22.54
2023-04-18T03:09:58.630Z,22.51
2023-04-18T03:10:58.658Z,22.48
2023-04-18T03:11:58.686Z,22.45
2023-04-18T03:12:58.695Z,22.43
2023-04-18T03:13:58.730Z,22.40
2023-04-18T03:14:58.761Z,22.38
2023-04-18T03:15:59.011Z,22.35
2023-04-18T03:16:58.858Z,22.34
2023-04-18T03:17:58.959Z,22.33
2023-04-18T03:18:58.947Z,22.31
2023-04-18T03:19:58.981Z,22.29
2023-04-18T03:20:59.031Z,22.26
2023-04-18T03:21:59.080Z,22.23
2023-04-18T03:22:59.126Z,22.22
2023-04-18T03:23:59.189Z,22.20
2023-04-18T03:24:59.232Z,22.20
2023-04-18T03:25:59.266Z,22.19
2023-04-18T03:26:59.304Z,22.18
2023-04-18T03:27:59.368Z,22.16
2023-04-18T03:28:59.406Z,22.15
2023-04-18T03:29:59.446Z,22.13
2023-04-18T03:30:59.538Z,22.13
2023-04-18T03:31:59.662Z,22.12
2023-04-18T03:32:59.636Z,22.11
2023-04-18T03:33:59.653Z,22.10
2023-04-18T03:34:59.701Z,22.09
2023-04-18T03:35:59.754Z,22.07
2023-04-18T03:36:59.776Z,22.07
2023-04-18T03:37:59.789Z,22.06
2023-04-18T03:38:59.809Z,22.04
2023-04-18T03:39:59.825Z,22.04
2023-04-18T03:40:59.871Z,22.04
2023-04-18T03:41:59.865Z,22.02
2023-04-18T03:42:59.899Z,22.00
2023-04-18T03:43:59.919Z,22.00
2023-04-18T03:44:59.917Z,22.00
2023-04-18T03:45:59.995Z,21.98
2023-04-18T03:46:59.953Z,21.97
2023-04-18T03:48:00.030Z,21.97
2023-04-18T03:48:59.988Z,21.95
2023-04-18T03:50:00.012Z,21.95
2023-04-18T03:51:00.040Z,21.94
2023-04-18T03:52:00.051Z,21.93
2023-04-18T03:53:00.070Z,21.93
2023-04-18T03:54:00.105Z,21.90
2023-04-18T03:55:00.169Z,21.91
2023-04-18T03:56:00.154Z,21.89
2023-04-18T03:57:00.165Z,21.87
2023-04-18T03:58:00.175Z,21.87
2023-04-18T03:59:00.202Z,21.86
2023-04-18T04:00:00.243Z,21.86
2023-04-18T04:01:00.325Z,21.85
2023-04-18T04:02:00.510Z,21.85
2023-04-18T04:03:00.570Z,21.83
2023-04-18T04:04:00.596Z,21.83
2023-04-18T04:05:00.632Z,21.83
2023-04-18T04:06:00.603Z,21.84
2023-04-18T04:07:00.625Z,21.83
2023-04-18T04:08:00.637Z,21.82
2023-04-18T04:09:00.664Z,21.81
2023-04-18T04:10:00.675Z,21.82
2023-04-18T04:11:00.693Z,21.81
2023-04-18T04:12:00.708Z,21.80
2023-04-18T04:13:00.729Z,21.81
2023-04-18T04:14:00.796Z,21.80
2023-04-18T04:15:00.855Z,21.80
2023-04-18T04:16:00.970Z,21.79
2023-04-18T04:17:00.997Z,21.77
2023-04-18T04:18:01.072Z,21.76
2023-04-18T04:19:01.132Z,21.75
2023-04-18T04:20:01.210Z,21.75
2023-04-18T04:21:01.288Z,21.75
2023-04-18T04:22:01.372Z,21.74
2023-04-18T04:23:01.428Z,21.72
2023-04-18T04:24:01.552Z,21.72
2023-04-18T04:25:01.591Z,21.73
2023-04-18T04:26:01.759Z,21.72
2023-04-18T04:27:01.760Z,21.71
2023-04-18T04:28:01.826Z,21.69
2023-04-18T04:29:01.900Z,21.68
2023-04-18T04:30:01.973Z,21.68
2023-04-18T04:31:02.085Z,21.69
2023-04-18T04:32:02.226Z,21.67
2023-04-18T04:33:02.251Z,21.67
2023-04-18T04:34:02.298Z,21.67
2023-04-18T04:35:02.390Z,21.67
2023-04-18T04:36:02.498Z,21.68
2023-04-18T04:37:02.567Z,21.66
2023-04-18T04:38:02.660Z,21.65
2023-04-18T04:39:02.746Z,21.66
2023-04-18T04:40:02.852Z,21.65
2023-04-18T04:41:02.906Z,21.63
2023-04-18T04:42:02.941Z,21.63
2023-04-18T04:43:02.959Z,21.63
2023-04-18T04:44:02.969Z,21.63
2023-04-18T04:45:03.032Z,21.62
2023-04-18T04:46:03.044Z,21.62
2023-04-18T04:47:03.033Z,21.63
2023-04-18T04:48:03.046Z,21.63
2023-04-18T04:49:03.040Z,21.61
2023-04-18T04:50:03.061Z,21.61
2023-04-18T04:51:03.080Z,21.60
2023-04-18T04:52:03.178Z,21.60
2023-04-18T04:53:03.171Z,21.59
2023-04-18T04:54:03.202Z,21.59
2023-04-18T04:55:03.245Z,21.59
2023-04-18T04:56:03.239Z,21.58
2023-04-18T04:57:03.272Z,21.58
2023-04-18T04:58:03.277Z,21.56
2023-04-18T04:59:03.287Z,21.56
2023-04-18T05:00:03.299Z,21.57
2023-04-18T05:01:03.325Z,21.57
2023-04-18T05:02:03.471Z,21.55
2023-04-18T05:03:03.490Z,21.56
2023-04-18T05:04:03.446Z,21.56
2023-04-18T05:05:03.362Z,21.57
2023-04-18T05:06:03.391Z,21.54
2023-04-18T05:07:03.420Z,21.56
2023-04-18T05:08:03.587Z,21.56
2023-04-18T05:09:03.484Z,21.55
2023-04-18T05:10:03.505Z,21.53
2023-04-18T05:11:03.552Z,21.53
2023-04-18T05:12:03.619Z,21.52
2023-04-18T05:13:03.660Z,21.52
2023-04-18T05:14:03.680Z,21.51
2023-04-18T05:15:03.709Z,21.49
2023-04-18T05:16:03.711Z,21.47
2023-04-18T05:17:03.796Z,21.47
2023-04-18T05:18:03.792Z,21.47
2023-04-18T05:19:03.783Z,21.47
2023-04-18T05:20:03.793Z,21.46
2023-04-18T05:21:03.796Z,21.47
2023-04-18T05:22:03.812Z,21.47
2023-04-18T05:23:03.838Z,21.46
2023-04-18T05:24:03.843Z,21.48
2023-04-18T05:25:03.854Z,21.48
2023-04-18T05:26:03.876Z,21.48
2023-04-18T05:27:03.887Z,21.47
2023-04-18T05:28:03.960Z,21.45
2023-04-18T05:29:03.940Z,21.45
2023-04-18T05:30:03.941Z,21.44
2023-04-18T05:31:04.039Z,21.43
2023-04-18T05:32:03.989Z,21.43
2023-04-18T05:33:04.086Z,21.49
2023-04-18T05:34:03.999Z,21.53
2023-04-18T05:35:04.009Z,21.59
2023-04-18T05:36:04.024Z,21.67
2023-04-18T05:37:04.051Z,21.75
2023-04-18T05:38:04.062Z,21.83
2023-04-18T05:39:04.106Z,21.92
2023-04-18T05:40:04.097Z,22.00
2023-04-18T05:41:04.082Z,22.06
2023-04-18T05:42:04.089Z,22.12
2023-04-18T05:43:04.105Z,22.16
2023-04-18T05:44:17.177Z,22.23
2023-04-18T05:45:05.159Z,22.26
2023-04-18T05:46:04.196Z,22.34
2023-04-18T05:47:04.366Z,22.39
2023-04-18T05:48:04.257Z,22.42
2023-04-18T05:49:04.170Z,22.46
2023-04-18T05:50:04.176Z,22.50
2023-04-18T05:51:04.196Z,22.56
2023-04-18T05:52:04.188Z,22.50
2023-04-18T05:53:04.196Z,21.61
2023-04-18T05:54:04.264Z,20.29
2023-04-18T05:55:04.290Z,19.32
2023-04-18T05:56:04.361Z,18.94
2023-04-18T05:57:04.946Z,18.70
2023-04-18T05:58:04.457Z,18.47
2023-04-18T05:59:04.541Z,18.40
2023-04-18T06:00:04.585Z,18.20
2023-04-18T06:01:04.634Z,17.81
2023-04-18T06:02:04.791Z,17.15
2023-04-18T06:03:04.956Z,16.99
2023-04-18T06:04:04.960Z,17.41
2023-04-18T06:05:05.168Z,17.88
2023-04-18T06:06:05.028Z,18.33
2023-04-18T06:07:05.132Z,18.75
2023-04-18T06:08:05.169Z,19.10
2023-04-18T06:09:05.237Z,19.43
2023-04-18T06:10:05.311Z,19.70
2023-04-18T06:11:05.364Z,19.98
2023-04-18T06:12:05.420Z,20.15
2023-04-18T06:13:05.447Z,20.24
2023-04-18T06:14:05.523Z,20.31
2023-04-18T06:15:05.501Z,20.32
2023-04-18T06:16:05.589Z,20.34
2023-04-18T06:17:05.564Z,20.34
2023-04-18T06:18:05.605Z,20.31
2023-04-18T06:19:05.605Z,20.26
2023-04-18T06:20:05.620Z,20.22
2023-04-18T06:21:05.636Z,20.20
2023-04-18T06:22:05.652Z,20.22
2023-04-18T06:23:05.688Z,20.23
2023-04-18T06:24:05.701Z,20.23
2023-04-18T06:25:05.732Z,20.21
2023-04-18T06:26:05.734Z,20.20
2023-04-18T06:27:05.772Z,20.19
2023-04-18T06:28:05.807Z,20.20
2023-04-18T06:29:05.807Z,20.20
2023-04-18T06:30:05.820Z,20.18
2023-04-18T06:31:05.889Z,20.22
2023-04-18T06:32:05.931Z,20.26
2023-04-18T06:33:05.926Z,20.27
2023-04-18T06:34:05.919Z,20.28
2023-04-18T06:35:05.932Z,20.27
2023-04-18T06:36:05.954Z,20.33
2023-04-18T06:37:05.979Z,20.43
2023-04-18T06:38:05.990Z,20.53
2023-04-18T06:39:06.006Z,20.67
2023-04-18T06:40:06.007Z,20.80
2023-04-18T06:41:06.047Z,20.93
2023-04-18T06:42:06.050Z,21.09
2023-04-18T06:43:06.062Z,21.22
2023-04-18T06:44:06.148Z,21.36
2023-04-18T06:45:06.094Z,21.37
2023-04-18T06:46:06.245Z,21.39
2023-04-18T06:47:06.136Z,21.44
2023-04-18T06:48:06.174Z,21.43
2023-04-18T06:49:06.164Z,21.39
2023-04-18T06:50:06.208Z,21.25
2023-04-18T06:51:06.179Z,21.19
2023-04-18T06:52:06.215Z,21.13
2023-04-18T06:53:06.217Z,21.07
2023-04-18T06:54:06.230Z,21.08
2023-04-18T06:55:06.224Z,21.04
2023-04-18T06:56:06.241Z,21.00
2023-04-18T06:57:06.252Z,20.95
2023-04-18T06:58:06.266Z,20.95
2023-04-18T06:59:06.312Z,20.95
2023-04-18T07:00:06.494Z,20.95
2023-04-18T07:01:06.333Z,20.99
2023-04-18T07:02:06.362Z,21.02
2023-04-18T07:03:08.017Z,21.04
2023-04-18T07:04:06.397Z,21.05
2023-04-18T07:05:06.364Z,21.05
2023-04-18T07:06:06.380Z,20.98
2023-04-18T07:07:06.398Z,20.98
2023-04-18T07:08:06.402Z,20.98
2023-04-18T07:09:06.430Z,20.97
2023-04-18T07:10:06.460Z,20.98
2023-04-18T07:11:06.464Z,20.97
2023-04-18T07:12:06.489Z,20.96
2023-04-18T07:13:06.484Z,20.99
2023-04-18T07:14:06.511Z,21.02
2023-04-18T07:15:06.543Z,21.05
2023-04-18T07:16:06.540Z,21.06
2023-04-18T07:17:06.684Z,21.14
2023-04-18T07:18:06.620Z,21.20
2023-04-18T07:19:06.568Z,21.22
2023-04-18T07:20:06.588Z,21.25
2023-04-18T07:21:06.600Z,21.26
2023-04-18T07:22:06.607Z,21.30
2023-04-18T07:23:06.675Z,21.44
2023-04-18T07:24:06.638Z,21.48
2023-04-18T07:25:06.646Z,21.47
2023-04-18T07:26:06.649Z,21.48
2023-04-18T07:27:06.670Z,21.51
2023-04-18T07:28:06.680Z,21.46
2023-04-18T07:29:06.687Z,21.40
2023-04-18T07:30:06.706Z,21.33
2023-04-18T07:31:06.776Z,21.26
2023-04-18T07:32:08.382Z,21.19
2023-04-18T07:33:06.764Z,21.21
2023-04-18T07:34:06.762Z,21.21
2023-04-18T07:35:06.822Z,21.14
2023-04-18T07:36:06.799Z,21.12
2023-04-18T07:37:06.807Z,21.13
2023-04-18T07:38:06.830Z,21.21
2023-04-18T07:39:06.850Z,21.30
2023-04-18T07:40:06.890Z,21.41
2023-04-18T07:41:06.907Z,21.51
2023-04-18T07:42:06.910Z,21.60
2023-04-18T07:43:06.925Z,21.69
2023-04-18T07:44:06.959Z,21.78
2023-04-18T07:45:06.942Z,21.86
2023-04-18T07:46:06.971Z,21.93
2023-04-18T07:47:06.987Z,21.99
2023-04-18T07:48:07.023Z,22.05
2023-04-18T07:49:06.994Z,22.10
2023-04-18T07:50:07.015Z,22.15
2023-04-18T07:51:07.032Z,22.19
2023-04-18T07:52:07.026Z,22.22
2023-04-18T07:53:07.030Z,22.26
2023-04-18T07:54:07.044Z,22.28
2023-04-18T07:55:07.070Z,22.31
2023-04-18T07:56:07.089Z,22.34
2023-04-18T07:57:07.112Z,22.36
2023-04-18T07:58:07.121Z,22.39
2023-04-18T07:59:07.186Z,22.41
2023-04-18T08:00:07.217Z,22.43
2023-04-18T08:01:07.286Z,22.44
2023-04-18T08:02:07.349Z,22.46
2023-04-18T08:03:07.564Z,22.47
2023-04-18T08:04:07.865Z,22.49
2023-04-18T08:05:07.651Z,22.50
2023-04-18T08:06:07.567Z,22.50
2023-04-18T08:07:07.660Z,22.52
2023-04-18T08:08:07.770Z,22.54
2023-04-18T08:09:07.838Z,22.56
2023-04-18T08:10:07.876Z,22.58
2023-04-18T08:11:07.939Z,22.59
2023-04-18T08:12:08.000Z,22.60
2023-04-18T08:13:08.099Z,22.61
2023-04-18T08:14:08.175Z,22.62
2023-04-18T08:15:08.217Z,22.68
2023-04-18T08:16:08.278Z,22.76
2023-04-18T08:17:08.333Z,22.79
2023-04-18T08:18:08.403Z,22.83
2023-04-18T08:19:08.443Z,22.85
2023-04-18T08:20:08.480Z,22.89
2023-04-18T08:21:08.519Z,22.93
2023-04-18T08:22:08.550Z,22.96
2023-04-18T08:23:11.170Z,22.99
2023-04-18T08:24:08.568Z,23.02
2023-04-18T08:25:08.597Z,23.06
2023-04-18T08:26:08.590Z,23.08
2023-04-18T08:27:08.591Z,23.10
2023-04-18T08:28:08.613Z,23.13
2023-04-18T08:29:08.620Z,23.15
2023-04-18T08:30:08.635Z,23.20
2023-04-18T08:31:08.696Z,23.34
2023-04-18T08:32:08.700Z,23.38
2023-04-18T08:33:08.691Z,23.36
2023-04-18T08:34:08.644Z,23.33
2023-04-18T08:35:08.662Z,23.31
2023-04-18T08:36:08.676Z,23.32
2023-04-18T08:37:08.674Z,23.34
2023-04-18T08:38:08.680Z,23.34
2023-04-18T08:39:08.686Z,23.37
2023-04-18T08:40:08.692Z,23.43
2023-04-18T08:41:08.705Z,23.47
2023-04-18T08:42:08.701Z,23.51
2023-04-18T08:43:08.704Z,23.55
2023-04-18T08:44:08.710Z,23.58
2023-04-18T08:45:08.722Z,23.54
2023-04-18T08:46:08.773Z,23.49
2023-04-18T08:47:08.733Z,23.48
2023-04-18T08:48:08.846Z,23.53
2023-04-18T08:49:10.719Z,23.51
2023-04-18T08:50:08.870Z,23.49
2023-04-18T08:51:08.875Z,23.47
2023-04-18T08:52:08.881Z,23.47
2023-04-18T08:53:08.865Z,23.47
2023-04-18T08:54:08.881Z,23.53
2023-04-18T08:55:08.887Z,23.51
2023-04-18T08:56:08.873Z,23.49
2023-04-18T08:57:08.870Z,23.48
2023-04-18T08:58:08.861Z,23.45
2023-04-18T08:59:08.873Z,23.45
2023-04-18T09:00:08.886Z,23.43
2023-04-18T09:01:08.943Z,23.42
2023-04-18T09:02:09.109Z,23.41
2023-04-18T09:03:09.116Z,23.41
2023-04-18T09:04:09.143Z,23.41
2023-04-18T09:05:09.142Z,23.40
2023-04-18T09:06:09.217Z,23.40
2023-04-18T09:07:09.269Z,23.40
2023-04-18T09:08:09.354Z,23.40
2023-04-18T09:09:09.405Z,23.41
2023-04-18T09:10:09.440Z,23.41
2023-04-18T09:11:09.489Z,23.42
2023-04-18T09:12:09.540Z,23.41
2023-04-18T09:13:09.596Z,23.41
2023-04-18T09:14:09.676Z,23.42
2023-04-18T09:15:09.705Z,23.42
2023-04-18T09:16:09.781Z,23.42
2023-04-18T09:17:09.775Z,23.43
2023-04-18T09:18:09.853Z,23.43
2023-04-18T09:19:09.854Z,23.44
2023-04-18T09:20:09.897Z,23.44
2023-04-18T09:21:09.905Z,23.44
2023-04-18T09:22:09.947Z,23.45
2023-04-18T09:23:09.981Z,23.46
2023-04-18T09:24:10.032Z,23.48
2023-04-18T09:25:10.036Z,23.49
2023-04-18T09:26:10.031Z,23.52
2023-04-18T09:27:10.047Z,23.53
2023-04-18T09:28:10.035Z,23.55
2023-04-18T09:29:10.037Z,23.56
2023-04-18T09:30:10.043Z,23.57
2023-04-18T09:31:10.103Z,23.57
2023-04-18T09:32:10.047Z,23.59
2023-04-18T09:33:10.089Z,23.60
2023-04-18T09:34:10.153Z,23.61
2023-04-18T09:35:10.231Z,23.61
2023-04-18T09:36:10.289Z,23.62
2023-04-18T09:37:10.413Z,23.63
2023-04-18T09:38:10.426Z,23.64
2023-04-18T09:39:10.469Z,23.65
2023-04-18T09:40:10.590Z,23.65
2023-04-18T09:41:10.598Z,23.69
2023-04-18T09:42:10.696Z,23.72
2023-04-18T09:43:10.746Z,23.74
2023-04-18T09:44:13.974Z,23.75
2023-04-18T09:45:10.680Z,23.77
2023-04-18T09:46:10.713Z,23.80
2023-04-18T09:47:10.684Z,23.85
2023-04-18T09:48:10.773Z,23.90
2023-04-18T09:49:11.267Z,23.93
2023-04-18T09:50:10.689Z,23.96
2023-04-18T09:51:10.703Z,23.99
2023-04-18T09:52:10.707Z,24.00
2023-04-18T09:53:10.694Z,24.03
2023-04-18T09:54:10.758Z,24.05
2023-04-18T09:55:10.695Z,24.07
2023-04-18T09:56:10.750Z,24.08
2023-04-18T09:57:10.718Z,24.10
2023-04-18T09:58:10.715Z,24.12
2023-04-18T09:59:10.718Z,24.11
2023-04-18T10:00:10.782Z,24.08
2023-04-18T10:01:10.735Z,24.06
2023-04-18T10:02:10.746Z,24.04
2023-04-18T10:03:10.849Z,24.02
2023-04-18T10:04:10.750Z,24.01
2023-04-18T10:05:10.896Z,24.00
2023-04-18T10:06:10.749Z,24.00
2023-04-18T10:07:10.720Z,24.01
2023-04-18T10:08:10.733Z,24.01
2023-04-18T10:10:29.584Z,23.98
2023-04-18T10:11:29.673Z,23.97
2023-04-18T10:12:29.551Z,23.97
2023-04-18T10:13:29.561Z,23.95
2023-04-18T10:14:29.562Z,23.94
2023-04-18T10:15:29.567Z,23.91
2023-04-18T10:16:29.610Z,23.89
2023-04-18T10:17:29.848Z,23.86
2023-04-18T10:18:29.586Z,23.85
2023-04-18T10:19:29.580Z,23.84
2023-04-18T10:20:29.525Z,23.86
2023-04-18T10:21:29.548Z,23.87
2023-04-18T10:22:29.503Z,23.87
2023-04-18T10:23:29.487Z,23.88
2023-04-18T10:24:29.472Z,23.87
2023-04-18T10:25:29.475Z,23.87
2023-04-18T10:26:29.527Z,23.85
2023-04-18T10:27:29.623Z,23.86
2023-04-18T10:28:29.471Z,23.87
2023-04-18T10:29:29.429Z,23.87
2023-04-18T10:30:29.424Z,23.87
2023-04-18T10:31:29.446Z,23.85
2023-04-18T10:32:29.455Z,23.84
2023-04-18T10:33:31.863Z,23.84
2023-04-18T10:34:29.390Z,23.83
2023-04-18T10:35:29.392Z,23.81
2023-04-18T10:36:29.397Z,23.84
2023-04-18T10:37:29.371Z,23.87
2023-04-18T10:38:29.441Z,23.90
2023-04-18T10:39:29.377Z,23.84
2023-04-18T10:40:29.342Z,23.87
2023-04-18T10:41:29.346Z,23.90
2023-04-18T10:42:29.330Z,23.97
2023-04-18T10:43:29.321Z,24.03
2023-04-18T10:44:29.322Z,24.07
2023-04-18T10:45:29.331Z,24.12
2023-04-18T10:46:32.467Z,24.16
2023-04-18T10:47:29.405Z,24.20
2023-04-18T10:48:29.296Z,24.23
2023-04-18T10:49:32.115Z,24.24
2023-04-18T10:50:29.276Z,24.23
2023-04-18T10:51:29.282Z,24.19
2023-04-18T10:52:29.268Z,24.13
2023-04-18T10:53:29.234Z,24.09
2023-04-18T10:54:29.244Z,24.05
2023-04-18T10:55:29.229Z,24.02
2023-04-18T10:56:29.286Z,24.01
2023-04-18T10:57:29.259Z,24.00
2023-04-18T10:58:29.223Z,24.00
2023-04-18T10:59:29.498Z,24.00
2023-04-18T11:00:29.202Z,24.01
2023-04-18T11:01:32.118Z,24.01
2023-04-18T11:02:29.255Z,24.00
2023-04-18T11:03:29.188Z,24.00
2023-04-18T11:04:29.261Z,24.01
2023-04-18T11:05:29.118Z,24.03
2023-04-18T11:06:29.129Z,24.04
2023-04-18T11:07:30.058Z,24.04
2023-04-18T11:08:29.086Z,24.05
2023-04-18T11:09:29.079Z,24.07
2023-04-18T11:10:29.073Z,24.08
2023-04-18T11:11:29.064Z,24.08
2023-04-18T11:12:29.064Z,24.08
2023-04-18T11:13:29.042Z,24.09
2023-04-18T11:14:29.057Z,24.10
2023-04-18T11:15:30.873Z,24.14
2023-04-18T11:16:29.080Z,24.22
2023-04-18T11:17:29.041Z,24.28
2023-04-18T11:18:28.976Z,24.32
2023-04-18T11:19:28.972Z,24.35
2023-04-18T11:20:28.948Z,24.36
2023-04-18T11:21:30.676Z,24.34
2023-04-18T11:22:29.021Z,24.22
2023-04-18T11:23:28.912Z,24.18
2023-04-18T11:24:28.896Z,24.19
2023-04-18T11:25:28.868Z,24.19
2023-04-18T11:26:28.866Z,24.20
2023-04-18T11:27:28.843Z,24.25
2023-04-18T11:28:28.821Z,24.29
2023-04-18T11:29:28.796Z,24.29
2023-04-18T11:30:28.823Z,24.32
2023-04-18T11:31:29.014Z,24.35
2023-04-18T11:32:28.843Z,24.36
2023-04-18T11:33:28.756Z,24.38
2023-04-18T11:34:28.743Z,24.38
2023-04-18T11:35:28.800Z,24.40
2023-04-18T11:36:28.772Z,24.40
2023-04-18T11:37:28.777Z,24.39
2023-04-18T11:38:28.762Z,24.38
2023-04-18T11:39:28.766Z,24.37
2023-04-18T11:40:28.745Z,24.36
2023-04-18T11:41:28.761Z,24.33
2023-04-18T11:42:28.629Z,24.31
2023-04-18T11:43:28.624Z,24.29
2023-04-18T11:44:28.598Z,24.31
2023-04-18T11:45:28.592Z,24.31
2023-04-18T11:46:28.618Z,24.30
2023-04-18T11:47:28.589Z,24.30
2023-04-18T11:48:28.547Z,24.28
2023-04-18T11:49:28.538Z,24.27
2023-04-18T11:50:28.516Z,24.28
2023-04-18T11:51:28.515Z,24.29
2023-04-18T11:52:28.509Z,24.30
2023-04-18T11:53:28.490Z,24.29
2023-04-18T11:54:28.475Z,24.29
2023-04-18T11:55:28.469Z,24.30
2023-04-18T11:56:28.445Z,24.32
2023-04-18T11:57:28.428Z,24.32
2023-04-18T11:58:28.406Z,24.32
2023-04-18T11:59:28.389Z,24.31
2023-04-18T12:00:28.391Z,24.33
2023-04-18T12:01:28.355Z,24.34
2023-04-18T12:02:28.501Z,24.35
2023-04-18T12:03:28.484Z,24.36
2023-04-18T12:04:28.423Z,24.38
2023-04-18T12:05:28.396Z,24.38
2023-04-18T12:06:28.373Z,24.39
2023-04-18T12:07:28.301Z,24.40
2023-04-18T12:08:28.271Z,24.41
2023-04-18T12:09:28.259Z,24.42
2023-04-18T12:10:28.271Z,24.43
2023-04-18T12:11:28.279Z,24.44
2023-04-18T12:12:28.347Z,24.46
2023-04-18T12:13:28.384Z,24.47
2023-04-18T12:14:28.442Z,24.48
2023-04-18T12:15:28.519Z,24.50
2023-04-18T12:16:28.632Z,24.51
2023-04-18T12:17:28.617Z,24.53
2023-04-18T12:18:28.663Z,24.53
2023-04-18T12:19:28.645Z,24.53
2023-04-18T12:20:28.631Z,24.54
2023-04-18T12:21:28.624Z,24.53
2023-04-18T12:22:28.610Z,24.53
2023-04-18T12:23:28.579Z,24.54
2023-04-18T12:24:28.608Z,24.52
2023-04-18T12:25:28.570Z,24.52
2023-04-18T12:26:28.567Z,24.51
2023-04-18T12:27:28.538Z,24.50
2023-04-18T12:28:28.545Z,24.50
2023-04-18T12:29:28.512Z,24.51
2023-04-18T12:30:28.514Z,24.51
2023-04-18T12:31:28.547Z,24.52
2023-04-18T12:32:28.555Z,24.52
2023-04-18T12:33:28.481Z,24.53
2023-04-18T12:34:28.468Z,24.53
2023-04-18T12:35:28.483Z,24.54
2023-04-18T12:36:28.503Z,24.56
2023-04-18T12:37:28.554Z,24.57
2023-04-18T12:38:28.599Z,24.59
2023-04-18T12:39:28.659Z,24.61
2023-04-18T12:40:28.684Z,24.63
2023-04-18T12:41:28.732Z,24.65
2023-04-18T12:42:28.770Z,24.66
2023-04-18T12:43:28.829Z,24.68
2023-04-18T12:44:28.882Z,24.70
2023-04-18T12:45:28.939Z,24.72
2023-04-18T12:46:29.065Z,24.72
2023-04-18T12:47:29.021Z,24.73
2023-04-18T12:48:28.963Z,24.75
2023-04-18T12:49:28.957Z,24.77
2023-04-18T12:50:28.938Z,24.79
2023-04-18T12:51:29.017Z,24.81
2023-04-18T12:52:28.916Z,24.83
2023-04-18T12:53:28.907Z,24.84
2023-04-18T12:54:28.889Z,24.87